sensor_id;sensor_type;location;lat;lon;timestamp;temperature;humidity
19435;DHT22;9853;50.848;4.108;2023-04-10T00:00:55;12.90;99.90
19435;DHT22;9853;50.848;4.108;2023-04-10T00:02:59;12.80;99.90
19435;DHT22;9853;50.848;4.108;2023-04-10T00:05:03;12.90;99.90
19435;DHT22;9853;50.848;4.108;2023-04-10T00:07:04;13.00;99.90
19435;DHT22;9853;50.848;4.108;2023-04-10T00:09:05;13.10;99.90
19435;DHT22;9853;50.848;4.108;2023-04-10T00:11:05;13.10;99.90
19435;DHT22;9853;50.848;4.108;2023-04-10T00:13:06;13.20;99.90
19435;DHT22;9853;50.848;4.108;2023-04-10T00:15:07;13.30;99.90
19435;DHT22;9853;50.848;4.108;2023-04-10T00:17:08;13.30;99.90
19435;DHT22;9853;50.848;4.108;2023-04-10T00:19:09;13.30;99.90
19435;DHT22;9853;50.848;4.108;2023-04-10T00:21:10;13.30;99.90
19435;DHT22;9853;50.848;4.108;2023-04-10T00:23:11;13.20;99.90
19435;DHT22;9853;50.848;4.108;2023-04-10T00:25:11;13.10;99.90
19435;DHT22;9853;50.848;4.108;2023-04-10T00:27:12;13.10;99.90
19435;DHT22;9853;50.848;4.108;2023-04-10T00:29:13;13.00;99.90
19435;DHT22;9853;50.848;4.108;2023-04-10T00:31:15;12.90;99.90
19435;DHT22;9853;50.848;4.108;2023-04-10T00:33:16;12.90;99.90
19435;DHT22;9853;50.848;4.108;2023-04-10T00:35:16;12.90;99.90
19435;DHT22;9853;50.848;4.108;2023-04-10T00:37:17;12.80;99.90
19435;DHT22;9853;50.848;4.108;2023-04-10T00:39:18;12.80;99.90
19435;DHT22;9853;50.848;4.108;2023-04-10T00:41:19;12.80;99.90
19435;DHT22;9853;50.848;4.108;2023-04-10T00:43:20;12.80;99.90
19435;DHT22;9853;50.848;4.108;2023-04-10T00:45:21;12.60;99.90
19435;DHT22;9853;50.848;4.108;2023-04-10T00:47:22;12.50;99.90
19435;DHT22;9853;50.848;4.108;2023-04-10T00:49:23;12.50;99.90
19435;DHT22;9853;50.848;4.108;2023-04-10T00:51:24;12.50;99.90
19435;DHT22;9853;50.848;4.108;2023-04-10T00:53:27;12.40;99.90
19435;DHT22;9853;50.848;4.108;2023-04-10T00:55:28;12.30;99.90
19435;DHT22;9853;50.848;4.108;2023-04-10T00:57:28;12.30;99.90
19435;DHT22;9853;50.848;4.108;2023-04-10T00:59:30;12.20;99.90
19435;DHT22;9853;50.848;4.108;2023-04-10T01:01:31;12.20;99.90
19435;DHT22;9853;50.848;4.108;2023-04-10T01:03:31;12.20;99.90
19435;DHT22;9853;50.848;4.108;2023-04-10T01:05:40;12.20;99.90
19435;DHT22;9853;50.848;4.108;2023-04-10T01:10:07;12.10;99.90
19435;DHT22;9853;50.848;4.108;2023-04-10T01:16:57;12.20;99.90
19435;DHT22;9853;50.848;4.108;2023-04-10T01:19:12;12.10;99.90
19435;DHT22;9853;50.848;4.108;2023-04-10T01:21:16;12.10;99.90
19435;DHT22;9853;50.848;4.108;2023-04-10T01:30:05;12.50;99.90
19435;DHT22;9853;50.848;4.108;2023-04-10T01:32:10;12.50;99.90
19435;DHT22;9853;50.848;4.108;2023-04-10T01:34:18;12.50;99.90
19435;DHT22;9853;50.848;4.108;2023-04-10T01:36:24;12.40;99.90
19435;DHT22;9853;50.848;4.108;2023-04-10T01:38:28;12.30;99.90
19435;DHT22;9853;50.848;4.108;2023-04-10T01:40:30;12.30;99.90
19435;DHT22;9853;50.848;4.108;2023-04-10T01:42:36;12.40;99.90
19435;DHT22;9853;50.848;4.108;2023-04-10T01:44:41;12.10;99.90
19435;DHT22;9853;50.848;4.108;2023-04-10T01:46:45;12.00;99.90
19435;DHT22;9853;50.848;4.108;2023-04-10T01:48:46;12.10;99.90
19435;DHT22;9853;50.848;4.108;2023-04-10T01:50:49;12.10;99.90
19435;DHT22;9853;50.848;4.108;2023-04-10T01:52:51;12.20;99.90
19435;DHT22;9853;50.848;4.108;2023-04-10T01:55:03;12.20;99.90
19435;DHT22;9853;50.848;4.108;2023-04-10T01:57:12;12.20;99.90
19435;DHT22;9853;50.848;4.108;2023-04-10T01:59:24;12.20;99.90
19435;DHT22;9853;50.848;4.108;2023-04-10T02:01:24;12.20;99.90
19435;DHT22;9853;50.848;4.108;2023-04-10T02:03:26;12.10;99.90
19435;DHT22;9853;50.848;4.108;2023-04-10T02:05:33;12.20;99.90
19435;DHT22;9853;50.848;4.108;2023-04-10T02:07:54;12.10;99.90
19435;DHT22;9853;50.848;4.108;2023-04-10T02:10:12;12.20;99.90
19435;DHT22;9853;50.848;4.108;2023-04-10T02:12:31;12.40;99.90
19435;DHT22;9853;50.848;4.108;2023-04-10T02:14:39;12.30;99.90
19435;DHT22;9853;50.848;4.108;2023-04-10T02:16:41;12.30;99.90
19435;DHT22;9853;50.848;4.108;2023-04-10T02:18:43;12.20;99.90
19435;DHT22;9853;50.848;4.108;2023-04-10T02:20:45;12.30;99.90
19435;DHT22;9853;50.848;4.108;2023-04-10T02:22:47;12.20;99.90
19435;DHT22;9853;50.848;4.108;2023-04-10T02:24:48;12.10;99.90
19435;DHT22;9853;50.848;4.108;2023-04-10T02:26:50;12.20;99.90
19435;DHT22;9853;50.848;4.108;2023-04-10T02:28:51;12.10;99.90
19435;DHT22;9853;50.848;4.108;2023-04-10T02:30:52;12.10;99.90
19435;DHT22;9853;50.848;4.108;2023-04-10T02:32:52;12.10;99.90
19435;DHT22;9853;50.848;4.108;2023-04-10T02:34:53;11.90;99.90
19435;DHT22;9853;50.848;4.108;2023-04-10T02:36:54;11.90;99.90
19435;DHT22;9853;50.848;4.108;2023-04-10T02:38:55;11.90;99.90
19435;DHT22;9853;50.848;4.108;2023-04-10T02:40:58;11.80;99.90
19435;DHT22;9853;50.848;4.108;2023-04-10T02:42:59;11.70;99.90
19435;DHT22;9853;50.848;4.108;2023-04-10T02:45:00;11.80;99.90
19435;DHT22;9853;50.848;4.108;2023-04-10T02:47:07;11.90;99.90
19435;DHT22;9853;50.848;4.108;2023-04-10T02:49:09;11.90;99.90
19435;DHT22;9853;50.848;4.108;2023-04-10T02:51:09;11.80;99.90
19435;DHT22;9853;50.848;4.108;2023-04-10T02:53:15;11.80;99.90
19435;DHT22;9853;50.848;4.108;2023-04-10T20:58:47;11.20;99.90
19435;DHT22;9853;50.848;4.108;2023-04-10T21:00:52;11.50;99.90
19435;DHT22;9853;50.848;4.108;2023-04-10T21:02:52;11.60;99.90
19435;DHT22;9853;50.848;4.108;2023-04-10T21:04:53;11.40;99.90
19435;DHT22;9853;50.848;4.108;2023-04-10T21:06:54;11.50;99.90
19435;DHT22;9853;50.848;4.108;2023-04-10T21:08:55;11.60;99.90
19435;DHT22;9853;50.848;4.108;2023-04-10T21:10:55;11.60;99.90
19435;DHT22;9853;50.848;4.108;2023-04-10T21:12:59;11.60;99.90
19435;DHT22;9853;50.848;4.108;2023-04-10T21:15:00;11.60;99.90
19435;DHT22;9853;50.848;4.108;2023-04-10T21:17:01;11.50;99.90
19435;DHT22;9853;50.848;4.108;2023-04-10T21:19:02;11.50;99.90
19435;DHT22;9853;50.848;4.108;2023-04-10T21:21:03;11.60;99.90
19435;DHT22;9853;50.848;4.108;2023-04-10T21:23:04;11.50;99.90
19435;DHT22;9853;50.848;4.108;2023-04-10T21:25:05;11.40;99.90
19435;DHT22;9853;50.848;4.108;2023-04-10T21:27:06;11.40;99.90
19435;DHT22;9853;50.848;4.108;2023-04-10T21:29:07;11.40;99.90
19435;DHT22;9853;50.848;4.108;2023-04-10T21:31:08;11.40;99.90
19435;DHT22;9853;50.848;4.108;2023-04-10T21:33:09;11.40;99.90
19435;DHT22;9853;50.848;4.108;2023-04-10T21:35:09;11.50;99.90
19435;DHT22;9853;50.848;4.108;2023-04-10T21:37:10;11.50;99.90
19435;DHT22;9853;50.848;4.108;2023-04-10T21:39:11;11.50;99.90
19435;DHT22;9853;50.848;4.108;2023-04-10T21:41:12;11.50;99.90
19435;DHT22;9853;50.848;4.108;2023-04-10T21:43:12;11.50;99.90
19435;DHT22;9853;50.848;4.108;2023-04-10T21:45:13;11.40;99.90
19435;DHT22;9853;50.848;4.108;2023-04-10T21:47:15;11.30;99.90
19435;DHT22;9853;50.848;4.108;2023-04-10T21:49:15;11.30;99.90
19435;DHT22;9853;50.848;4.108;2023-04-10T21:51:16;11.20;99.90
19435;DHT22;9853;50.848;4.108;2023-04-10T21:53:18;11.20;99.90
19435;DHT22;9853;50.848;4.108;2023-04-10T21:55:19;11.00;99.90
19435;DHT22;9853;50.848;4.108;2023-04-10T21:57:19;10.90;99.90
19435;DHT22;9853;50.848;4.108;2023-04-10T21:59:20;10.90;99.90
19435;DHT22;9853;50.848;4.108;2023-04-10T22:01:21;10.80;99.90
19435;DHT22;9853;50.848;4.108;2023-04-10T22:03:22;10.90;99.90
19435;DHT22;9853;50.848;4.108;2023-04-10T22:05:23;10.80;99.90
19435;DHT22;9853;50.848;4.108;2023-04-10T22:07:24;11.00;99.90
19435;DHT22;9853;50.848;4.108;2023-04-10T22:09:24;11.10;99.90
19435;DHT22;9853;50.848;4.108;2023-04-10T22:11:25;11.00;99.90
19435;DHT22;9853;50.848;4.108;2023-04-10T22:13:26;11.20;99.90
19435;DHT22;9853;50.848;4.108;2023-04-10T22:15:26;11.10;99.90
19435;DHT22;9853;50.848;4.108;2023-04-10T22:17:27;11.10;99.90
19435;DHT22;9853;50.848;4.108;2023-04-10T22:19:28;11.10;99.90
19435;DHT22;9853;50.848;4.108;2023-04-10T22:21:28;11.20;99.90
19435;DHT22;9853;50.848;4.108;2023-04-10T22:23:30;11.10;99.90
19435;DHT22;9853;50.848;4.108;2023-04-10T22:25:31;11.10;99.90
19435;DHT22;9853;50.848;4.108;2023-04-10T22:27:32;11.00;99.90
19435;DHT22;9853;50.848;4.108;2023-04-10T22:29:33;10.80;99.90
19435;DHT22;9853;50.848;4.108;2023-04-10T22:31:34;10.70;99.90
19435;DHT22;9853;50.848;4.108;2023-04-10T22:33:35;10.70;99.90
19435;DHT22;9853;50.848;4.108;2023-04-10T22:35:37;10.70;99.90
19435;DHT22;9853;50.848;4.108;2023-04-10T22:37:38;10.60;99.90
19435;DHT22;9853;50.848;4.108;2023-04-10T22:39:38;10.70;99.90
19435;DHT22;9853;50.848;4.108;2023-04-10T22:41:39;10.60;99.90
19435;DHT22;9853;50.848;4.108;2023-04-10T22:43:40;10.70;99.90
19435;DHT22;9853;50.848;4.108;2023-04-10T22:45:41;10.70;99.90
19435;DHT22;9853;50.848;4.108;2023-04-10T22:47:41;10.70;99.90
19435;DHT22;9853;50.848;4.108;2023-04-10T22:49:42;10.60;99.90
19435;DHT22;9853;50.848;4.108;2023-04-10T22:51:43;10.50;99.90
19435;DHT22;9853;50.848;4.108;2023-04-10T22:53:45;10.40;99.90
19435;DHT22;9853;50.848;4.108;2023-04-10T22:55:45;10.50;99.90
19435;DHT22;9853;50.848;4.108;2023-04-10T22:57:49;10.60;99.90
19435;DHT22;9853;50.848;4.108;2023-04-10T22:59:50;10.70;99.90
19435;DHT22;9853;50.848;4.108;2023-04-10T23:01:51;10.70;99.90
19435;DHT22;9853;50.848;4.108;2023-04-10T23:03:51;10.70;99.90
19435;DHT22;9853;50.848;4.108;2023-04-10T23:05:53;10.70;99.90
19435;DHT22;9853;50.848;4.108;2023-04-10T23:07:54;10.70;99.90
19435;DHT22;9853;50.848;4.108;2023-04-10T23:09:55;10.70;99.90
19435;DHT22;9853;50.848;4.108;2023-04-10T23:11:55;10.60;99.90
19435;DHT22;9853;50.848;4.108;2023-04-10T23:13:56;10.60;99.90
19435;DHT22;9853;50.848;4.108;2023-04-10T23:15:57;10.50;99.90
19435;DHT22;9853;50.848;4.108;2023-04-10T23:17:57;10.50;99.90
19435;DHT22;9853;50.848;4.108;2023-04-10T23:19:58;10.60;99.90
19435;DHT22;9853;50.848;4.108;2023-04-10T23:21:59;10.70;99.90
19435;DHT22;9853;50.848;4.108;2023-04-10T23:24:00;10.70;99.90
19435;DHT22;9853;50.848;4.108;2023-04-10T23:26:00;10.90;99.90
19435;DHT22;9853;50.848;4.108;2023-04-10T23:28:01;10.80;99.90
19435;DHT22;9853;50.848;4.108;2023-04-10T23:30:03;10.90;99.90
19435;DHT22;9853;50.848;4.108;2023-04-10T23:32:04;11.00;99.90
19435;DHT22;9853;50.848;4.108;2023-04-10T23:34:04;11.00;99.90
19435;DHT22;9853;50.848;4.108;2023-04-10T23:36:05;11.10;99.90
19435;DHT22;9853;50.848;4.108;2023-04-10T23:38:06;10.90;99.90
19435;DHT22;9853;50.848;4.108;2023-04-10T23:40:07;10.90;99.90
19435;DHT22;9853;50.848;4.108;2023-04-10T23:42:08;10.90;99.90
19435;DHT22;9853;50.848;4.108;2023-04-10T23:44:09;10.90;99.90
19435;DHT22;9853;50.848;4.108;2023-04-10T23:46:09;10.80;99.90
19435;DHT22;9853;50.848;4.108;2023-04-10T23:48:10;10.80;99.90
19435;DHT22;9853;50.848;4.108;2023-04-10T23:50:11;10.70;99.90
19435;DHT22;9853;50.848;4.108;2023-04-10T23:52:12;10.70;99.90
19435;DHT22;9853;50.848;4.108;2023-04-10T23:54:12;10.70;99.90
19435;DHT22;9853;50.848;4.108;2023-04-10T23:56:13;10.70;99.90
19435;DHT22;9853;50.848;4.108;2023-04-10T23:58:14;10.90;99.90
